Time;durP1;ratioP1;P1;durP2;ratioP2;P2;SDS_P1;SDS_P2;PMS_P1;PMS_P2;Temp;Humidity;BMP_temperature;BMP_pressure;BME280_temperature;BME280_humidity;BME280_pressure;Samples;Min_cycle;Max_cycle;Signal;HPM_P1;HPM_P2
2022/03/04 04:01:24;;;;;;;1.80;1.70;;;3.80;55.50;;;;;;5715977;23;20888;-68
2022/03/04 04:03:52;;;;;;;2.10;2.00;;;3.80;55.70;;;;;;4999722;28;20452;-69
2022/03/04 04:06:19;;;;;;;2.27;2.10;;;3.80;56.00;;;;;;4999733;28;20449;-69
2022/03/04 04:08:46;;;;;;;2.10;2.00;;;3.80;55.50;;;;;;4999333;28;20440;-69
2022/03/04 04:11:13;;;;;;;1.93;1.83;;;3.80;55.70;;;;;;4992768;28;20523;-69
2022/03/04 04:13:40;;;;;;;1.90;1.80;;;3.70;55.80;;;;;;4980274;28;20474;-69
2022/03/04 04:16:06;;;;;;;1.83;1.73;;;3.70;56.00;;;;;;5037566;23;20500;-74
2022/03/04 04:18:35;;;;;;;2.03;1.93;;;3.70;55.80;;;;;;5000928;28;20445;-74
2022/03/04 04:21:03;;;;;;;2.50;2.30;;;3.70;56.00;;;;;;5000805;28;20445;-74
2022/03/04 04:23:29;;;;;;;2.30;2.20;;;3.60;56.20;;;;;;5000742;28;21024;-74
2022/03/04 04:25:56;;;;;;;2.93;2.73;;;3.60;56.40;;;;;;4989825;28;20478;-74
2022/03/04 04:28:25;;;;;;;2.17;2.07;;;3.60;56.50;;;;;;4978065;28;20458;-74
2022/03/04 04:30:52;;;;;;;2.07;1.97;;;3.60;56.50;;;;;;4987477;28;20450;-74
2022/03/04 04:33:19;;;;;;;1.87;1.77;;;3.60;56.30;;;;;;4991213;28;20434;-75
2022/03/04 04:35:46;;;;;;;2.00;1.90;;;3.60;56.30;;;;;;4981201;28;20473;-74
2022/03/04 04:38:14;;;;;;;2.20;2.10;;;3.60;56.40;;;;;;4981673;28;20454;-75
2022/03/04 04:40:41;;;;;;;1.80;1.70;;;3.60;56.30;;;;;;4982355;28;20461;-74
2022/03/04 04:43:08;;;;;;;2.33;2.23;;;3.60;56.30;;;;;;4981211;28;20493;-74
2022/03/04 04:45:35;;;;;;;2.50;2.37;;;3.60;56.20;;;;;;4981471;28;20537;-75
2022/03/04 04:48:01;;;;;;;1.77;1.67;;;3.60;56.10;;;;;;4982151;28;20837;-74
2022/03/04 04:50:28;;;;;;;2.20;2.10;;;3.60;56.30;;;;;;4981724;28;20466;-74
2022/03/04 04:52:56;;;;;;;2.30;2.20;;;3.60;56.40;;;;;;4981433;28;20446;-74
2022/03/04 04:55:23;;;;;;;2.43;2.33;;;3.60;56.20;;;;;;4980368;28;20480;-74
2022/03/04 04:57:50;;;;;;;2.33;2.13;;;3.50;56.70;;;;;;4980969;28;20462;-75
2022/03/04 05:00:18;;;;;;;1.93;1.83;;;3.50;56.70;;;;;;4979491;28;20489;-75
2022/03/04 05:02:45;;;;;;;1.90;1.80;;;3.50;56.70;;;;;;4980298;28;20536;-75
2022/03/04 05:05:12;;;;;;;1.87;1.77;;;3.40;56.80;;;;;;4978991;28;20506;-75
2022/03/04 05:07:39;;;;;;;2.23;2.13;;;3.40;56.60;;;;;;4980638;28;20461;-75
2022/03/04 05:10:08;;;;;;;2.10;2.00;;;3.40;56.60;;;;;;4979593;28;20450;-75
2022/03/04 05:12:35;;;;;;;2.43;2.33;;;3.40;56.40;;;;;;4980057;28;20462;-75
2022/03/04 05:15:01;;;;;;;2.10;2.00;;;3.40;56.80;;;;;;4979337;28;20582;-75
2022/03/04 05:17:28;;;;;;;2.27;2.17;;;3.30;57.00;;;;;;4979676;28;20788;-75
2022/03/04 05:19:55;;;;;;;2.47;2.37;;;3.30;56.70;;;;;;4979008;28;20816;-75
2022/03/04 05:22:22;;;;;;;2.20;2.10;;;3.30;56.80;;;;;;4978684;28;20509;-74
2022/03/04 05:24:48;;;;;;;2.20;2.10;;;3.30;56.70;;;;;;4978863;28;20465;-75
2022/03/04 05:27:17;;;;;;;2.53;2.43;;;3.30;56.80;;;;;;4978440;28;20864;-75
2022/03/04 05:29:43;;;;;;;2.23;2.13;;;3.30;56.90;;;;;;4978223;28;20475;-75
2022/03/04 05:32:10;;;;;;;2.60;2.40;;;3.20;57.40;;;;;;4977404;28;20462;-74
2022/03/04 05:34:37;;;;;;;2.30;2.20;;;3.20;57.10;;;;;;4977250;28;20946;-75
2022/03/04 05:37:04;;;;;;;2.47;2.27;;;3.20;57.20;;;;;;4977244;28;20536;-74
2022/03/04 05:39:31;;;;;;;2.57;2.37;;;3.20;57.30;;;;;;4977347;28;20460;-74
2022/03/04 05:41:58;;;;;;;2.63;2.43;;;3.20;57.30;;;;;;4976894;28;20450;-74
2022/03/04 05:44:27;;;;;;;2.60;2.40;;;3.20;57.40;;;;;;4977635;28;20505;-74
2022/03/04 05:46:53;;;;;;;2.50;2.40;;;3.20;57.10;;;;;;4977214;28;20621;-75
2022/03/04 05:49:20;;;;;;;2.40;2.20;;;3.10;56.90;;;;;;4977157;28;20544;-74
2022/03/04 05:51:47;;;;;;;2.20;2.00;;;3.10;57.00;;;;;;4977779;28;20450;-74
2022/03/04 05:54:13;;;;;;;2.17;2.07;;;3.00;57.30;;;;;;4978174;28;20958;-75
2022/03/04 05:56:40;;;;;;;2.53;2.33;;;3.00;57.20;;;;;;4977150;28;20477;-75
2022/03/04 05:59:07;;;;;;;2.40;2.30;;;3.00;57.70;;;;;;4976986;28;20462;-74
2022/03/04 06:01:35;;;;;;;2.50;2.40;;;3.00;57.70;;;;;;4977415;28;20457;-75
2022/03/04 06:04:02;;;;;;;2.20;2.10;;;3.10;57.80;;;;;;4976917;28;20552;-75
2022/03/04 06:06:28;;;;;;;2.33;2.23;;;3.10;57.80;;;;;;4976850;28;20474;-74
2022/03/04 06:08:55;;;;;;;2.13;2.00;;;3.10;57.90;;;;;;4977829;28;20458;-74
2022/03/04 06:11:22;;;;;;;2.40;2.30;;;3.20;57.70;;;;;;4977155;28;20819;-74
2022/03/04 06:13:48;;;;;;;2.33;2.23;;;3.20;57.80;;;;;;4976769;28;20449;-74
2022/03/04 06:16:15;;;;;;;2.70;2.50;;;3.20;58.00;;;;;;4977234;28;20489;-75
2022/03/04 06:18:43;;;;;;;2.07;1.97;;;3.20;57.90;;;;;;4976795;28;20450;-74
2022/03/04 06:21:10;;;;;;;2.73;2.53;;;3.30;57.70;;;;;;4977394;28;20450;-74
2022/03/04 06:23:36;;;;;;;4.37;2.70;;;3.30;57.60;;;;;;4976780;28;20558;-74
2022/03/04 06:26:03;;;;;;;2.73;2.57;;;3.40;57.60;;;;;;4976557;28;20839;-75
2022/03/04 06:28:30;;;;;;;2.30;2.20;;;3.40;57.80;;;;;;4976679;28;20451;-74
2022/03/04 06:30:57;;;;;;;2.30;2.20;;;3.80;58.00;;;;;;4976856;28;20459;-75
2022/03/04 06:33:33;;;;;;;2.37;2.27;;;4.50;56.60;;;;;;4975787;28;20458;-75
2022/03/04 06:36:04;;;;;;;2.03;1.93;;;5.60;53.80;;;;;;4977325;28;20985;-75
2022/03/04 06:38:31;;;;;;;2.80;2.60;;;6.90;51.20;;;;;;4978697;28;20438;-75
2022/03/04 06:40:58;;;;;;;2.10;2.00;;;7.70;49.60;;;;;;4978995;28;20465;-75
2022/03/04 06:43:25;;;;;;;2.43;2.23;;;8.70;47.90;;;;;;4978281;28;20493;-75
2022/03/04 06:45:53;;;;;;;2.27;2.17;;;9.90;45.80;;;;;;4978462;28;20458;-76
2022/03/04 06:48:21;;;;;;;2.27;2.07;;;11.20;43.10;;;;;;4979091;28;20896;-76
2022/03/04 06:50:48;;;;;;;2.80;1.97;;;12.40;41.00;;;;;;4978465;28;21000;-76
2022/03/04 06:53:17;;;;;;;3.50;2.20;;;13.40;39.60;;;;;;4979275;28;20442;-76
2022/03/04 06:55:45;;;;;;;2.13;2.03;;;14.40;38.00;;;;;;4978409;28;20477;-76
2022/03/04 06:58:12;;;;;;;2.00;1.80;;;15.40;36.70;;;;;;4978939;28;20459;-76
2022/03/04 07:00:41;;;;;;;2.20;1.80;;;16.40;35.20;;;;;;4978275;28;20453;-76
2022/03/04 07:03:07;;;;;;;1.90;1.80;;;17.40;34.20;;;;;;4978630;28;20486;-76
2022/03/04 07:05:35;;;;;;;1.90;1.80;;;18.30;33.00;;;;;;4978374;28;20484;-76
2022/03/04 07:08:02;;;;;;;2.30;2.10;;;19.20;32.00;;;;;;4978433;28;20460;-76
2022/03/04 07:10:30;;;;;;;1.93;1.83;;;20.00;30.20;;;;;;4978779;28;20439;-76
2022/03/04 07:12:57;;;;;;;2.10;2.00;;;20.80;29.30;;;;;;4978526;28;20448;-76
2022/03/04 07:15:23;;;;;;;2.00;1.90;;;21.60;28.60;;;;;;4978160;28;20991;-76
2022/03/04 07:17:50;;;;;;;1.97;1.87;;;22.40;27.70;;;;;;4978715;28;20441;-76
2022/03/04 07:20:17;;;;;;;1.80;1.70;;;23.20;27.00;;;;;;4978330;28;20454;-76
2022/03/04 07:22:44;;;;;;;2.03;1.93;;;24.10;26.10;;;;;;4977545;28;20478;-76
2022/03/04 07:25:12;;;;;;;2.20;2.10;;;24.70;25.60;;;;;;4976191;28;20481;-76
2022/03/04 07:27:41;;;;;;;1.93;1.83;;;24.90;25.10;;;;;;4976346;28;20942;-76
2022/03/04 07:30:10;;;;;;;1.80;1.70;;;25.20;24.80;;;;;;4976357;28;20456;-75
2022/03/04 07:32:38;;;;;;;2.30;1.90;;;25.50;24.50;;;;;;4978759;28;20462;-76
2022/03/04 07:35:07;;;;;;;1.67;1.57;;;25.70;23.90;;;;;;4978567;28;20470;-76
2022/03/04 07:37:34;;;;;;;2.67;1.87;;;26.00;23.80;;;;;;4980420;28;20458;-76
2022/03/04 07:40:01;;;;;;;2.00;1.90;;;26.40;23.50;;;;;;4979737;28;20971;-75
2022/03/04 07:42:28;;;;;;;2.07;1.97;;;26.10;23.20;;;;;;4980850;28;20526;-76
2022/03/04 07:44:56;;;;;;;2.53;2.33;;;26.30;23.30;;;;;;4981760;28;20454;-76
2022/03/04 07:47:23;;;;;;;1.97;1.87;;;25.70;23.20;;;;;;4978679;28;20449;-76
2022/03/04 07:49:50;;;;;;;2.37;2.20;;;25.90;23.80;;;;;;4979606;28;20457;-76
2022/03/04 07:52:17;;;;;;;2.03;1.93;;;26.20;23.40;;;;;;4981483;28;20454;-76
2022/03/04 07:54:44;;;;;;;1.67;1.57;;;26.20;23.60;;;;;;4980260;28;20454;-77
2022/03/04 07:57:11;;;;;;;2.07;1.97;;;25.90;23.30;;;;;;4980133;28;20501;-76
2022/03/04 07:59:38;;;;;;;2.43;2.23;;;26.30;23.60;;;;;;4977670;28;20446;-76
2022/03/04 08:02:07;;;;;;;2.30;2.10;;;26.30;23.50;;;;;;4979663;28;20449;-76
2022/03/04 08:04:33;;;;;;;2.20;2.10;;;25.20;24.00;;;;;;4984773;28;20490;-75
2022/03/04 08:07:00;;;;;;;2.00;1.80;;;24.90;24.50;;;;;;4984507;28;20473;-76
2022/03/04 08:09:27;;;;;;;2.83;1.93;;;24.20;24.90;;;;;;4984649;28;20461;-76
2022/03/04 08:11:54;;;;;;;2.10;2.00;;;23.40;26.00;;;;;;4983691;28;20956;-76
2022/03/04 08:14:21;;;;;;;2.43;2.23;;;22.50;26.10;;;;;;4978095;28;20449;-75
2022/03/04 08:16:47;;;;;;;2.50;2.30;;;21.50;27.20;;;;;;4977666;28;20486;-76
2022/03/04 08:19:15;;;;;;;2.67;2.47;;;19.80;28.30;;;;;;4977945;28;20453;-75
2022/03/04 08:21:43;;;;;;;2.90;2.70;;;16.80;31.00;;;;;;4977952;28;20458;-76
2022/03/04 08:24:10;;;;;;;2.67;2.47;;;15.20;33.50;;;;;;4977652;28;20513;-76
2022/03/04 08:26:38;;;;;;;2.67;2.47;;;13.90;35.30;;;;;;4981485;28;20466;-77
2022/03/04 08:29:06;;;;;;;2.70;2.50;;;11.90;38.60;;;;;;4984322;28;20513;-76
2022/03/04 08:31:33;;;;;;;2.87;2.63;;;11.00;40.00;;;;;;4983812;28;20464;-76
2022/03/04 08:34:00;;;;;;;2.70;2.50;;;10.70;40.80;;;;;;4983756;28;20442;-76
2022/03/04 08:36:28;;;;;;;2.50;2.30;;;10.20;41.40;;;;;;4984040;28;20462;-75
2022/03/04 08:38:55;;;;;;;3.20;2.80;;;9.80;42.40;;;;;;4984428;28;20458;-76
2022/03/04 08:41:22;;;;;;;2.77;2.57;;;9.50;42.60;;;;;;4982960;28;20461;-76
2022/03/04 08:43:51;;;;;;;2.23;2.13;;;9.10;43.40;;;;;;4983376;28;20493;-76
2022/03/04 08:46:17;;;;;;;2.40;2.30;;;8.50;44.10;;;;;;4982961;28;20548;-76
2022/03/04 08:48:45;;;;;;;2.10;2.00;;;7.80;45.80;;;;;;4982385;28;20945;-76
2022/03/04 08:51:11;;;;;;;2.83;2.63;;;7.40;46.30;;;;;;4979857;28;20934;-76
2022/03/04 08:53:40;;;;;;;2.70;2.50;;;6.90;47.60;;;;;;4977471;28;20450;-75
2022/03/04 08:56:07;;;;;;;2.60;2.43;;;6.70;48.90;;;;;;4977952;28;20470;-75
2022/03/04 08:58:34;;;;;;;3.00;2.80;;;6.60;48.60;;;;;;4977437;28;20453;-75
2022/03/04 09:01:01;;;;;;;2.60;2.40;;;6.40;49.30;;;;;;4977412;28;20454;-75
2022/03/04 09:03:28;;;;;;;2.90;2.70;;;6.10;50.30;;;;;;4977762;28;20482;-75
2022/03/04 09:05:55;;;;;;;2.67;2.53;;;6.10;50.70;;;;;;4977117;28;20470;-75
2022/03/04 09:08:22;;;;;;;2.80;2.60;;;6.20;50.20;;;;;;4977038;28;20497;-75
2022/03/04 09:10:50;;;;;;;2.90;2.70;;;6.10;50.10;;;;;;4977638;28;20441;-75
2022/03/04 09:13:16;;;;;;;2.60;2.50;;;6.00;50.60;;;;;;4976626;28;21012;-75
2022/03/04 09:15:43;;;;;;;2.60;2.40;;;6.00;50.50;;;;;;4977455;28;20537;-75
2022/03/04 09:18:10;;;;;;;2.50;2.40;;;6.20;51.10;;;;;;4977916;28;20528;-75
2022/03/04 09:20:37;;;;;;;2.40;2.27;;;6.40;51.00;;;;;;4977736;28;20454;-75
2022/03/04 09:23:04;;;;;;;2.00;1.90;;;6.30;50.30;;;;;;4977954;28;20462;-75
2022/03/04 09:25:31;;;;;;;2.33;2.23;;;6.40;50.70;;;;;;4978119;28;20493;-75
2022/03/04 09:27:59;;;;;;;2.47;2.37;;;6.30;49.70;;;;;;4977627;28;20462;-75
2022/03/04 09:30:26;;;;;;;3.10;2.90;;;6.10;50.00;;;;;;4977865;28;20525;-75
2022/03/04 09:32:52;;;;;;;2.73;2.53;;;6.30;51.00;;;;;;4977737;28;20485;-75
2022/03/04 09:35:19;;;;;;;2.43;2.33;;;6.30;50.10;;;;;;4977871;28;20466;-75
2022/03/04 09:37:46;;;;;;;2.80;2.60;;;6.40;49.90;;;;;;4977882;28;20457;-75
2022/03/04 09:40:13;;;;;;;2.20;2.10;;;6.30;50.40;;;;;;4977997;28;20442;-75
2022/03/04 09:42:41;;;;;;;2.47;2.27;;;6.10;49.80;;;;;;4977354;28;20545;-75
2022/03/04 09:45:10;;;;;;;3.27;3.07;;;6.10;50.90;;;;;;4977400;28;20498;-75
2022/03/04 09:47:36;;;;;;;3.07;2.87;;;6.40;50.80;;;;;;4977686;28;20442;-75
2022/03/04 09:50:04;;;;;;;2.73;2.60;;;6.50;50.10;;;;;;4976682;28;20532;-75
2022/03/04 09:52:31;;;;;;;2.50;2.40;;;6.60;50.40;;;;;;4976909;28;20453;-72
2022/03/04 09:54:58;;;;;;;2.60;2.40;;;6.60;49.90;;;;;;4977191;28;20498;-75
2022/03/04 09:57:24;;;;;;;2.50;2.40;;;6.80;49.50;;;;;;4978001;28;20453;-75
2022/03/04 09:59:51;;;;;;;2.67;2.50;;;7.10;48.60;;;;;;4976857;28;20458;-75
2022/03/04 10:02:19;;;;;;;2.67;2.47;;;6.90;47.60;;;;;;4976995;28;20461;-75
2022/03/04 10:04:46;;;;;;;2.50;2.40;;;6.80;47.70;;;;;;4978222;28;20490;-75
2022/03/04 10:07:15;;;;;;;2.33;2.23;;;7.00;48.10;;;;;;4977582;28;20453;-75
2022/03/04 10:09:43;;;;;;;2.23;2.13;;;7.30;47.60;;;;;;4977705;28;20476;-75
2022/03/04 10:12:11;;;;;;;2.40;2.20;;;7.50;45.80;;;;;;4977706;28;20455;-74
2022/03/04 10:14:57;;;;;;;2.13;2.03;;;7.10;43.80;;;;;;4977800;28;20942;-74
2022/03/04 10:17:26;;;;;;;2.90;2.70;;;7.10;44.20;;;;;;4980926;28;20457;-75
2022/03/04 10:19:54;;;;;;;2.57;2.37;;;7.30;45.00;;;;;;4978177;28;20861;-74
2022/03/04 10:22:21;;;;;;;2.60;2.40;;;7.20;44.40;;;;;;4977778;28;20488;-74
2022/03/04 10:24:48;;;;;;;2.43;2.23;;;7.20;43.40;;;;;;4975314;28;21028;-73
2022/03/04 10:27:16;;;;;;;2.50;2.30;;;7.10;44.50;;;;;;4975698;28;20450;-74
2022/03/04 10:29:45;;;;;;;2.20;2.10;;;7.20;45.70;;;;;;4975392;28;20454;-74
2022/03/04 10:32:15;;;;;;;2.40;2.20;;;7.30;44.30;;;;;;4975333;28;20454;-74
2022/03/04 10:34:49;;;;;;;2.43;2.33;;;7.30;43.70;;;;;;4975450;28;20501;-73
2022/03/04 10:37:17;;;;;;;2.50;2.30;;;7.30;44.20;;;;;;4975103;28;20779;-74
2022/03/04 10:40:07;;;;;;;2.67;2.47;;;7.40;43.80;;;;;;4975483;28;20586;-74
2022/03/04 10:42:48;;;;;;;2.10;2.00;;;7.30;43.90;;;;;;4975308;28;20443;-74
2022/03/04 10:45:17;;;;;;;2.40;2.30;;;7.50;43.20;;;;;;4974753;28;20493;-74
2022/03/04 10:47:47;;;;;;;2.60;2.40;;;7.40;42.90;;;;;;4975259;28;20548;-74
2022/03/04 10:50:16;;;;;;;2.20;2.10;;;7.20;42.70;;;;;;4975230;28;20842;-74
2022/03/04 10:52:58;;;;;;;2.33;2.23;;;7.40;43.20;;;;;;4975254;28;20445;-74
2022/03/04 10:55:30;;;;;;;3.00;2.80;;;7.40;42.60;;;;;;4974961;28;20554;-74
2022/03/04 10:57:57;;;;;;;2.37;2.17;;;7.20;42.40;;;;;;4975019;28;20481;-74
2022/03/04 11:00:25;;;;;;;2.43;2.30;;;7.10;43.10;;;;;;4975403;28;20451;-74
2022/03/04 11:02:52;;;;;;;2.20;2.10;;;7.20;42.90;;;;;;4975053;28;20529;-74
2022/03/04 11:05:21;;;;;;;2.63;2.43;;;7.20;42.30;;;;;;4975171;28;20500;-74
2022/03/04 11:07:48;;;;;;;2.13;2.03;;;7.30;43.20;;;;;;4975239;28;20465;-74
2022/03/04 11:10:15;;;;;;;2.77;2.63;;;7.50;42.50;;;;;;4974926;28;20446;-74
2022/03/04 11:12:42;;;;;;;2.27;2.07;;;7.60;42.40;;;;;;4974992;28;20513;-74
2022/03/04 11:15:11;;;;;;;1.93;1.83;;;7.50;42.70;;;;;;4974693;28;20466;-74
2022/03/04 11:17:38;;;;;;;2.13;2.03;;;7.80;42.80;;;;;;4974964;28;20517;-75
2022/03/04 11:20:07;;;;;;;2.37;2.17;;;7.90;41.70;;;;;;4974742;28;20565;-75
2022/03/04 11:22:38;;;;;;;2.10;2.00;;;8.10;41.10;;;;;;4974665;28;20445;-74
2022/03/04 11:25:08;;;;;;;2.27;2.10;;;7.70;39.90;;;;;;4975328;28;20497;-74
2022/03/04 11:27:40;;;;;;;2.13;2.03;;;7.80;41.80;;;;;;4974538;28;20469;-73
2022/03/04 11:30:09;;;;;;;2.37;2.27;;;7.90;41.60;;;;;;4974880;28;20442;-73
2022/03/04 11:32:36;;;;;;;1.80;1.70;;;7.60;41.10;;;;;;4974969;28;20457;-73
2022/03/04 11:35:03;;;;;;;2.40;2.20;;;7.60;42.40;;;;;;4974684;28;20477;-73
2022/03/04 11:37:31;;;;;;;2.47;2.33;;;7.90;42.40;;;;;;4978474;28;20778;-74
2022/03/04 11:40:05;;;;;;;2.00;1.90;;;8.20;40.80;;;;;;4978366;28;20455;-73
2022/03/04 11:42:41;;;;;;;2.03;1.93;;;8.30;40.50;;;;;;4978747;28;20430;-74
2022/03/04 11:45:10;;;;;;;2.17;2.07;;;8.10;41.00;;;;;;4978524;28;20930;-75
2022/03/04 11:47:44;;;;;;;2.27;2.17;;;8.30;41.40;;;;;;4978805;28;20453;-74
2022/03/04 11:50:25;;;;;;;1.93;1.83;;;8.70;40.80;;;;;;4978833;28;20438;-75
2022/03/04 11:52:52;;;;;;;2.13;2.03;;;9.00;40.60;;;;;;4979089;28;20470;-75
2022/03/04 11:55:26;;;;;;;2.00;1.90;;;8.80;39.50;;;;;;4978646;28;20470;-75
2022/03/04 11:58:04;;;;;;;2.30;2.20;;;8.80;39.90;;;;;;4979143;28;20517;-74
2022/03/04 12:00:38;;;;;;;2.57;2.37;;;9.20;39.10;;;;;;4979611;28;20437;-75
2022/03/04 12:03:17;;;;;;;1.60;1.50;;;9.30;38.60;;;;;;4978611;28;20485;-74
2022/03/04 12:05:50;;;;;;;2.20;2.10;;;9.40;39.50;;;;;;4978319;28;20548;-74
2022/03/04 12:08:17;;;;;;;2.03;1.93;;;9.50;39.30;;;;;;4979099;28;20457;-74
2022/03/04 12:10:55;;;;;;;2.07;1.97;;;9.60;38.50;;;;;;4979174;28;20457;-75
2022/03/04 12:13:25;;;;;;;1.73;1.63;;;9.60;38.10;;;;;;4978741;28;20438;-74
2022/03/04 12:16:03;;;;;;;1.90;1.80;;;9.90;37.50;;;;;;4978866;28;20482;-74
2022/03/04 12:18:38;;;;;;;1.90;1.80;;;9.90;37.50;;;;;;4978505;28;20977;-74
2022/03/04 12:21:25;;;;;;;2.00;1.90;;;9.70;37.40;;;;;;4978844;28;20484;-74
2022/03/04 12:23:58;;;;;;;1.87;1.77;;;9.60;38.00;;;;;;4979356;28;20434;-74
2022/03/04 12:26:35;;;;;;;1.90;1.80;;;9.70;38.10;;;;;;4996562;28;20534;-74
2022/03/04 12:29:04;;;;;;;2.03;1.93;;;9.50;37.50;;;;;;4999940;28;20517;-73
2022/03/04 12:31:39;;;;;;;2.00;1.90;;;9.90;38.50;;;;;;4988068;28;20782;-74
2022/03/04 12:34:18;;;;;;;2.30;2.20;;;10.20;37.30;;;;;;4985034;28;20445;-74
2022/03/04 12:36:45;;;;;;;2.00;1.90;;;10.10;37.30;;;;;;4985428;28;20473;-75
2022/03/04 12:39:12;;;;;;;2.10;2.00;;;10.40;37.60;;;;;;4987420;28;20452;-74
2022/03/04 12:41:40;;;;;;;1.83;1.73;;;10.70;38.30;;;;;;4984638;28;20830;-75
2022/03/04 12:44:09;;;;;;;2.23;2.13;;;11.10;37.00;;;;;;4985045;28;20828;-75
2022/03/04 12:46:38;;;;;;;2.10;2.00;;;11.30;36.80;;;;;;4980809;28;20462;-75
2022/03/04 12:49:05;;;;;;;2.27;2.17;;;11.40;35.50;;;;;;4980784;28;20454;-74
2022/03/04 12:51:33;;;;;;;2.40;2.30;;;11.60;35.90;;;;;;4983721;28;20449;-76
2022/03/04 12:54:02;;;;;;;2.20;2.10;;;11.70;35.50;;;;;;4984659;28;20450;-75
2022/03/04 12:56:30;;;;;;;1.83;1.73;;;11.60;36.20;;;;;;4981716;28;20473;-75
2022/03/04 12:59:00;;;;;;;2.53;2.33;;;11.70;35.80;;;;;;4981772;28;20458;-75
2022/03/04 13:01:28;;;;;;;1.70;1.60;;;11.40;35.60;;;;;;4980537;28;20438;-75
2022/03/04 13:03:56;;;;;;;2.27;2.07;;;11.40;35.30;;;;;;4979151;28;20454;-75
2022/03/04 13:06:25;;;;;;;2.00;1.90;;;11.40;35.80;;;;;;4977476;28;20834;-76
2022/03/04 13:08:54;;;;;;;1.97;1.87;;;11.40;35.20;;;;;;4981362;28;20881;-75
2022/03/04 13:11:23;;;;;;;1.70;1.60;;;11.50;35.10;;;;;;4982133;28;20819;-74
2022/03/04 13:13:53;;;;;;;1.93;1.83;;;11.60;35.30;;;;;;4980776;28;20999;-75
2022/03/04 13:16:27;;;;;;;1.97;1.87;;;11.40;35.90;;;;;;4981995;28;20493;-75
2022/03/04 13:18:56;;;;;;;2.10;2.00;;;11.70;35.60;;;;;;4979301;28;20434;-76
2022/03/04 13:21:36;;;;;;;2.13;2.03;;;12.00;35.60;;;;;;4978617;28;20553;-76
2022/03/04 13:24:09;;;;;;;2.27;2.17;;;12.40;36.10;;;;;;4980547;28;20931;-76
2022/03/04 13:26:36;;;;;;;2.10;2.00;;;12.70;35.30;;;;;;4978594;28;20468;-76
2022/03/04 13:29:04;;;;;;;2.23;2.13;;;13.00;35.60;;;;;;4978844;28;20457;-76
2022/03/04 13:31:38;;;;;;;2.20;2.10;;;13.40;34.50;;;;;;4978395;28;20477;-76
2022/03/04 13:34:06;;;;;;;1.93;1.83;;;13.70;33.80;;;;;;4977290;28;20853;-76
2022/03/04 13:36:48;;;;;;;2.13;2.03;;;13.80;33.10;;;;;;4982059;28;20873;-77
2022/03/04 13:39:20;;;;;;;2.33;2.23;;;14.00;32.50;;;;;;4982519;28;20442;-76
2022/03/04 13:41:48;;;;;;;2.27;2.07;;;14.20;32.20;;;;;;4983193;28;20529;-76
2022/03/04 13:44:16;;;;;;;2.03;1.93;;;13.90;31.90;;;;;;4983050;28;20450;-76
2022/03/04 13:47:06;;;;;;;1.80;1.70;;;13.90;33.00;;;;;;4982261;28;20473;-76
2022/03/04 13:49:47;;;;;;;1.67;1.57;;;14.10;32.10;;;;;;4983350;28;20917;-75
2022/03/04 13:52:16;;;;;;;1.80;1.70;;;14.40;32.80;;;;;;4984861;28;20461;-75
2022/03/04 13:54:51;;;;;;;1.80;1.70;;;14.90;31.20;;;;;;4984983;28;20517;-74
2022/03/04 13:57:34;;;;;;;1.90;1.80;;;15.50;31.00;;;;;;4984719;28;20518;-75
2022/03/04 14:00:05;;;;;;;2.20;2.00;;;16.40;30.30;;;;;;4983624;28;20438;-75
2022/03/04 14:02:41;;;;;;;2.03;1.90;;;16.60;28.70;;;;;;4982822;28;20828;-76
2022/03/04 14:05:09;;;;;;;1.90;1.80;;;16.70;28.90;;;;;;4983942;28;21067;-75
2022/03/04 14:07:44;;;;;;;1.80;1.70;;;17.40;27.80;;;;;;4984090;28;20445;-76
2022/03/04 14:10:13;;;;;;;1.60;1.50;;;19.10;27.30;;;;;;4981279;28;20828;-76
2022/03/04 14:12:41;;;;;;;2.00;1.90;;;20.90;24.80;;;;;;4983084;28;20453;-76
2022/03/04 14:15:09;;;;;;;1.47;1.37;;;22.60;23.60;;;;;;4983465;28;20520;-75
2022/03/04 14:17:48;;;;;;;1.67;1.57;;;23.80;22.70;;;;;;4983966;28;20442;-75
2022/03/04 14:20:15;;;;;;;1.87;1.77;;;24.00;22.10;;;;;;4983920;28;20446;-76
2022/03/04 14:22:41;;;;;;;1.73;1.63;;;23.60;22.40;;;;;;4982664;28;20464;-77
2022/03/04 14:25:09;;;;;;;1.70;1.60;;;23.50;22.50;;;;;;4984771;28;20489;-75
2022/03/04 14:27:38;;;;;;;1.43;1.33;;;23.90;22.40;;;;;;4983867;28;20554;-75
2022/03/04 14:30:06;;;;;;;1.50;1.40;;;24.90;21.80;;;;;;4982834;28;20463;-75
2022/03/04 14:32:33;;;;;;;1.80;1.67;;;25.50;20.70;;;;;;4985075;28;20460;-75
2022/03/04 14:35:01;;;;;;;1.90;1.80;;;25.90;20.90;;;;;;4982270;28;20466;-77
2022/03/04 14:37:28;;;;;;;1.90;1.80;;;26.00;20.30;;;;;;4981200;28;20442;-75
2022/03/04 14:39:55;;;;;;;1.67;1.57;;;25.50;20.40;;;;;;4982016;28;20464;-74
2022/03/04 14:42:21;;;;;;;1.43;1.33;;;25.30;20.40;;;;;;4982830;28;20454;-75
2022/03/04 14:44:49;;;;;;;1.67;1.27;;;25.20;20.90;;;;;;4984717;28;20513;-74
2022/03/04 14:47:15;;;;;;;1.30;1.20;;;25.00;20.50;;;;;;4984104;28;20457;-74
2022/03/04 14:49:42;;;;;;;1.87;1.77;;;25.00;20.70;;;;;;4983035;28;20485;-74
2022/03/04 14:52:11;;;;;;;1.50;1.40;;;24.80;20.70;;;;;;4984404;28;20458;-75
2022/03/04 14:54:38;;;;;;;1.30;1.13;;;24.90;20.90;;;;;;4983377;28;20950;-75
2022/03/04 14:57:05;;;;;;;1.37;1.27;;;25.20;20.40;;;;;;4982288;28;20460;-75
2022/03/04 14:59:32;;;;;;;1.57;1.47;;;24.80;20.80;;;;;;4981453;28;20458;-75
2022/03/04 15:02:00;;;;;;;1.50;1.40;;;24.60;21.00;;;;;;4981463;28;20450;-76
2022/03/04 15:04:27;;;;;;;1.57;1.47;;;24.60;20.80;;;;;;4979053;28;20825;-75
2022/03/04 15:06:54;;;;;;;1.70;1.40;;;24.50;20.70;;;;;;4976367;28;20863;-75
2022/03/04 15:09:22;;;;;;;1.47;1.37;;;23.70;21.40;;;;;;4975834;28;20937;-75
2022/03/04 15:11:48;;;;;;;1.73;1.63;;;23.50;21.60;;;;;;4974927;28;20524;-75
2022/03/04 15:14:15;;;;;;;1.40;1.30;;;23.20;21.50;;;;;;4976576;28;20453;-74
2022/03/04 15:16:42;;;;;;;1.60;1.50;;;23.20;21.70;;;;;;4977087;28;20480;-74
2022/03/04 15:19:11;;;;;;;1.50;1.40;;;23.30;21.70;;;;;;4976905;28;20937;-75
2022/03/04 15:21:38;;;;;;;1.70;1.60;;;23.30;21.60;;;;;;4976221;28;20461;-74
2022/03/04 15:24:05;;;;;;;1.60;1.50;;;22.90;22.30;;;;;;4975988;28;20965;-75
2022/03/04 15:26:33;;;;;;;1.80;1.70;;;22.70;22.30;;;;;;4975017;28;20865;-74
2022/03/04 15:29:00;;;;;;;1.40;1.30;;;22.10;22.60;;;;;;4975195;28;20849;-74
2022/03/04 15:31:27;;;;;;;1.47;1.37;;;21.70;22.70;;;;;;4975388;28;20946;-75
2022/03/04 15:33:53;;;;;;;1.90;1.80;;;21.30;23.10;;;;;;4975405;28;20457;-74
2022/03/04 15:36:20;;;;;;;1.70;1.60;;;20.60;23.50;;;;;;4975627;28;20477;-74
2022/03/04 15:38:47;;;;;;;1.80;1.70;;;20.00;24.10;;;;;;4975069;28;20454;-75
2022/03/04 15:41:13;;;;;;;1.60;1.50;;;19.20;24.50;;;;;;4975204;28;20457;-75
2022/03/04 15:43:41;;;;;;;1.40;1.30;;;18.00;25.20;;;;;;4975443;28;20454;-75
2022/03/04 15:46:08;;;;;;;1.63;1.53;;;17.30;26.00;;;;;;4975199;28;20481;-75
2022/03/04 15:48:35;;;;;;;1.50;1.40;;;17.00;26.40;;;;;;4975558;28;20450;-75
2022/03/04 15:51:02;;;;;;;1.87;1.77;;;16.70;26.90;;;;;;4974788;28;20458;-75
2022/03/04 15:53:28;;;;;;;1.93;1.83;;;16.30;27.20;;;;;;4975010;28;20460;-75
2022/03/04 15:55:55;;;;;;;1.70;1.60;;;15.80;27.50;;;;;;4974866;28;20466;-75
2022/03/04 15:58:22;;;;;;;1.87;1.77;;;15.20;28.30;;;;;;4975242;28;20501;-75
2022/03/04 16:00:50;;;;;;;1.80;1.70;;;14.90;29.00;;;;;;4977039;28;20798;-75
2022/03/04 16:03:17;;;;;;;1.63;1.53;;;14.40;29.60;;;;;;4975339;28;20473;-75
2022/03/04 16:05:44;;;;;;;1.60;1.50;;;13.90;30.00;;;;;;4975565;28;20490;-74
2022/03/04 16:08:11;;;;;;;1.77;1.67;;;13.10;31.00;;;;;;4975608;28;20950;-75
2022/03/04 16:10:37;;;;;;;1.80;1.70;;;12.70;31.70;;;;;;4975805;28;20472;-74
2022/03/04 16:13:04;;;;;;;1.60;1.50;;;12.50;32.30;;;;;;4975825;28;20457;-74
2022/03/04 16:18:02;;;;;;;1.40;1.30;;;12.20;32.90;;;;;;4973189;28;20554;-70
2022/03/04 16:20:29;;;;;;;1.40;1.30;;;12.20;32.70;;;;;;4974149;28;20442;-70
2022/03/04 16:22:56;;;;;;;1.40;1.30;;;12.20;32.40;;;;;;4975976;28;20446;-70
2022/03/04 16:25:23;;;;;;;1.70;1.60;;;12.10;32.80;;;;;;4976856;28;20449;-72
2022/03/04 16:27:50;;;;;;;2.80;1.30;;;12.00;33.00;;;;;;4958257;29;20994;-71
2022/03/04 16:30:17;;;;;;;1.20;1.10;;;11.80;33.00;;;;;;4957803;29;20974;-70
2022/03/04 16:32:43;;;;;;;1.67;1.57;;;11.80;33.30;;;;;;4957780;29;20831;-70
2022/03/04 16:35:11;;;;;;;1.37;1.27;;;11.70;33.50;;;;;;4957794;29;20976;-70
2022/03/04 16:37:38;;;;;;;1.80;1.70;;;11.50;33.00;;;;;;4957880;28;20470;-69
2022/03/04 16:40:06;;;;;;;1.60;1.50;;;11.40;33.40;;;;;;4957643;29;20455;-70
2022/03/04 16:42:33;;;;;;;1.60;1.50;;;11.20;33.90;;;;;;4957936;29;20462;-71
2022/03/04 16:44:59;;;;;;;1.73;1.63;;;11.20;33.90;;;;;;4957939;29;20450;-69
2022/03/04 16:47:26;;;;;;;1.87;1.77;;;11.00;34.50;;;;;;4957805;28;20500;-70
2022/03/04 16:49:53;;;;;;;1.53;1.43;;;10.80;35.40;;;;;;4957865;29;20486;-71
2022/03/04 16:52:21;;;;;;;1.57;1.47;;;10.80;35.70;;;;;;4957812;29;20447;-70
2022/03/04 16:54:49;;;;;;;1.50;1.40;;;10.60;36.50;;;;;;4957805;29;20450;-70
2022/03/04 16:57:16;;;;;;;1.60;1.50;;;10.60;36.50;;;;;;4957876;28;20463;-70
2022/03/04 16:59:42;;;;;;;1.50;1.40;;;10.60;36.50;;;;;;4957220;29;20947;-71
2022/03/04 17:02:09;;;;;;;1.57;1.47;;;10.40;36.70;;;;;;4957481;29;20504;-70